Flight Track Log - Related Links

Times and Time Zones

All times are in EDT time to prevent confusion due to time zone crossing. See the UAL3272 flight status page for this flight to view local times or setup timezone preferences in your user account.

Time Position Orientation Groundspeed Altitude Reporting Facility
EDT Latitude Longitude Course Direction KTS MPH feet Rate Location/Type
Sat 06:36:19 AM 43.6333 -79.6333 227° Southwest 150 173 2,200  Level Toronto Center
Sat 06:37:19 AM 43.6000 -79.6833 227° Southwest 210 242 3,900 2,200 Climbing Toronto Center
Sat 06:38:19 AM 43.5333 -79.7000 190° South 240 276 6,600 1,550 Climbing Toronto Center
Sat 06:39:19 AM 43.4667 -79.7000 180° South 250 288 7,000 1,000 Climbing Toronto Center
Sat 06:40:19 AM 43.4000 -79.7000 180° South 230 265 8,600 1,450 Climbing Toronto Center
Sat 06:41:19 AM 43.3333 -79.7167 190° South 250 288 9,900 1,250 Climbing Toronto Center
Sat 06:42:19 AM 43.2333 -79.7167 180° South 300 345 11,100 1,300 Climbing Toronto Center
Sat 06:43:19 AM 43.1667 -79.7667 209° Southwest 310 357 12,500 1,400 Climbing Toronto Center
Sat 06:44:19 AM 43.0833 -79.8333 210° Southwest 320 368 13,900 1,250 Climbing Toronto Center
Sat 06:45:19 AM 43.0000 -79.9000 210° Southwest 320 368 15,000 1,050 Climbing Toronto Center
Sat 06:46:19 AM 42.9333 -79.9667 216° Southwest 330 380 16,000 1,600 Climbing Toronto Center
Sat 06:47:19 AM 42.8667 -80.0500 223° Southwest 320 368 18,200 1,977 Climbing Toronto Center
Sat 06:47:47 AM 42.8383 -80.0764 214° Southwest 338 389 18,900 1,841 Climbing Cleveland Center
Sat 06:48:47 AM 42.7719 -80.1336 212° Southwest 312 359 20,900 1,550 Climbing Cleveland Center
Sat 06:49:47 AM 42.6972 -80.1906 209° Southwest 304 350 22,000 550 Climbing Cleveland Center
Sat 06:50:47 AM 42.6222 -80.2617 215° Southwest 323 372 22,000  Level Cleveland Center
Sat 06:51:47 AM 42.5286 -80.3353 210° Southwest 352 405 22,000  Level Cleveland Center
Sat 06:52:47 AM 42.4433 -80.4089 213° Southwest 362 417 22,000  Level Cleveland Center
Sat 06:53:47 AM 42.3581 -80.4736 209° Southwest 368 423 22,000  Level Cleveland Center
Sat 06:54:47 AM 42.2767 -80.5439 213° Southwest 354 407 22,000  Level Cleveland Center
Sat 06:55:47 AM 42.1975 -80.6111 212° Southwest 354 407 22,000  Level Cleveland Center
Sat 06:56:47 AM 42.1164 -80.6783 212° Southwest 344 396 22,000  Level Cleveland Center
Sat 06:57:47 AM 42.0350 -80.7425 210° Southwest 337 388 22,000 -300 Level Cleveland Center
Sat 06:58:47 AM 41.9556 -80.8094 212° Southwest 342 394 21,400 -1,550 Descending Cleveland Center
Sat 06:59:47 AM 41.8761 -80.8731 211° Southwest 342 394 18,900 -2,500 Descending Cleveland Center
Sat 07:00:47 AM 41.8094 -80.9286 212° Southwest 336 387 16,400 -2,600 Descending Cleveland Center
Sat 07:01:47 AM 41.7319 -80.9894 210° Southwest 329 379 13,700 -2,477 Descending Cleveland Center
Sat 07:02:36 AM 41.6672 -81.0472 214° Southwest 300 345 11,900 -1,855 Descending Cleveland Center
Sat 07:03:37 AM 41.6003 -81.1081 214° Southwest 294 338 10,300 -1,377 Descending Cleveland Center
Sat 07:04:38 AM 41.5747 -81.1911 248° West 224 258 9,100 -1,438 Descending Cleveland Center
Sat 07:05:38 AM 41.5639 -81.2714 260° West 230 265 7,400 -1,438 Descending Cleveland Center
Sat 07:06:39 AM 41.5508 -81.3517 258° West 214 246 6,200 -992 Descending Cleveland Center
Sat 07:07:45 AM 41.5356 -81.4403 257° West 212 244 5,300 -567 Descending Cleveland Center
Sat 07:08:46 AM 41.5247 -81.5150 259° West 198 228 5,000 -492 Descending Cleveland Center
Sat 07:09:47 AM 41.5117 -81.5786 255° West 198 228 4,300 -678 Descending Cleveland Center
Sat 07:10:41 AM 41.5006 -81.6422 257° West 199 229 3,700 -650 Descending Cleveland Center
Sat 07:11:47 AM 41.4875 -81.7142 256° West 193 222 3,000 -520 Descending Cleveland Center
Sat 07:12:48 AM 41.4703 -81.7608 244° Southwest 134 154 2,600 -541 Descending Cleveland Center
Sat 07:13:49 AM 41.4450 -81.7964 227° Southwest 118 136 1,900 -703 Descending Cleveland Center
Sat 07:14:56 AM 41.4175 -81.8319 224° Southwest 130 150 1,100 -716 Descending Cleveland Center
Sat 07:16:00 AM 41.4000 -81.8500 252° West  Level FlightAware
Sat 07:23:00 AM 41.4094 -81.8547 252° West  Level Estimated

Login

Don't have an account? Register now (free) for customized features, flight alerts, and more!